Aviation Digital Data Service (ADDS)

Output produced by METARs form (1916 UTC 18 June 2019)
found at http://www.aviationweather.gov/metar/data/
 
EDAC 181850Z AUTO 07004KT 9999 // NCD 24/15 Q1013
TAF EDAC 181700Z 1818/1903 13004KT CAVOK
       
EDMA 181850Z VRB01KT CAVOK 20/16 Q1014
TAF EDMA 181700Z 1818/1903 VRB03KT CAVOK 
     PROB30 
     TEMPO 1821/1823 SHRA SCT045CB
       
EDVE 181850Z VRB02KT CAVOK 25/14 Q1012
TAF EDVE 181700Z 1818/1821 15004KT CAVOK
       
EDDW 181850Z 03008KT 360V060 CAVOK 23/17 Q1012 NOSIG
TAF EDDW 181700Z 1818/1918 36007KT CAVOK 
     BECMG 1823/1901 08003KT 
     PROB30 
     TEMPO 1900/1904 2000 BCFG 
     BECMG 1907/1909 13008KT 
     BECMG 1909/1911 19009KT 
     TEMPO 1911/1914 21014KT SCT050CB 
     TEMPO 1914/1918 22015G35KT TSRA BKN030CB 
     PROB30 
     TEMPO 1914/1917 22025G45KT 1500 +TSRAGR
       
ETSB 181820Z AUTO 23002KT 9999 // ////// 23/13 Q1013 ///
ETHB 181820Z 17001KT 9999 FEW044 BKN200 26/15 Q1012 BLU+BLU+
TAF ETHB 181625Z 1817/1902 16004KT 9999 NSW FEW060 BKN200
       
ETHC 181820Z 12003KT 9999 FEW065 BKN260 27/14 Q1012 BLU+
TAF AMD ETHC 181550Z 1814/1823 14008KT 9999 NSW SCT070 BKN300 CANCEL 1620
       
ETND 181320Z 20007KT 9999 SCT070TCU BKN300 29/11 Q1013 BLU+
TAF ETND 181325Z 1813/1820 15007KT 9999 NSW FEW060 BKN240 
     TEMPO 1813/1817 VRB10KT 9999 NSW SCT050CB BKN190 
     PROB30 1813/1817 VRB15G25KT 5000 TSRA BKN050CB BKN180 CANCEL 1330 BY ETGL
       
EDLW 181850Z 07003KT CAVOK 25/16 Q1011
TAF EDLW 181700Z 1818/1918 05005KT CAVOK 
     BECMG 1818/1821 15005KT 
     BECMG 1905/1908 21009KT 
     TEMPO 1914/1918 22015G25KT TSRA BKN040CB 
     PROB30 
     TEMPO 1915/1918 22025G45KT 2000 +TSRAGR
       
EDDC 181850Z 10006KT CAVOK 24/13 Q1014 NOSIG
TAF EDDC 181700Z 1818/1918 13007KT CAVOK 
     BECMG 1910/1913 19007KT 
     PROB30 
     TEMPO 1912/1918 19015G30KT 4000 TSRA BKN040CB
       
EDDL 181850Z 35007KT CAVOK 26/14 Q1011 BECMG 08005KT
TAF EDDL 181700Z 1818/1924 34005KT CAVOK 
     BECMG 1818/1821 08004KT 
     BECMG 1821/1824 15005KT 
     BECMG 1904/1907 17010KT 
     BECMG 1911/1914 23011KT 
     TEMPO 1913/1921 23015G30KT TSRA BKN040CB 
     PROB30 
     TEMPO 1915/1919 23030G45KT 2000 +TSRAGR 
     BECMG 1918/1921 23006KT
       
EDDE 181850Z 08005KT 050V110 CAVOK 25/13 Q1013 NOSIG
TAF EDDE 181700Z 1818/1918 08004KT CAVOK 
     BECMG 1821/1823 22006KT 
     PROB30 
     TEMPO 1912/1916 22020G35KT TSRA BKN060CB
       
ETHS 181820Z 17003KT 9999 FEW070 BKN260 BKN300 26/13 Q1012 BLU+
TAF AMD ETHS 181455Z 1814/1823 16006KT 9999 NSW FEW070 BKN320 CANCEL 1520
       
EDFH 181850Z VRB01KT CAVOK 22/15 Q1013
TAF AMD EDFH 181709Z 1817/1912 VRB03KT CAVOK 
     BECMG 1907/1909 22012KT
       
EDDF 181850Z 19003KT 9999 FEW060TCU 26/15 Q1011 NOSIG
TAF EDDF 181700Z 1818/1924 19005KT CAVOK 
     BECMG 1819/1821 VRB03KT 
     BECMG 1907/1909 22010KT 
     PROB30 
     TEMPO 1910/1915 24015G25KT 
     BECMG 1918/1920 24005KT 
     PROB30 
     TEMPO 1920/1924 24020G30KT 3000 TSRA BKN050CB
       
EDNY 181850Z 22017KT 9999 -SHRA SCT055CB 22/14 Q1015
TAF COR EDNY 181725Z 1818/1918 VRB03KT 9999 FEW060 
     PROB30 
     TEMPO 1818/1821 27010KT -TSRA SCT050CB 
     BECMG 1909/1911 23005KT
       
ETHF 181820Z 25002KT 9999 FEW050 BKN210 25/18 Q1012 BLU+
TAF AMD ETHF 181432Z 1814/1823 17005KT 9999 NSW SCT050 BKN300 
     PROB30 1815/1823 17010G20KT 7000 SHRA BKN040CB CANCEL 1500Z
       
ETNG 181850Z 36001KT CAVOK 27/15 Q1011 NOSIG
TAF ETNG 181700Z 1818/1909 16003KT CAVOK 
     PROB30 
     TEMPO 1905/1909 VRB15G25KT TSRA SCT060CB
       
ETIC 181856Z AUTO 00000KT 9999 CLR 24/15 A2994 RMK AO2 SLP121 T02410148 $
TAF ETIC 181411Z 1814/1920 VRB06KT 9999 SCT060 QNH2993INS 
     BECMG 1900/1901 VRB06KT 9999 FEW050 BKN140 QNH2989INS 
     TEMPO 1904/1906 8000 -SHRA BKN050 
     BECMG 1910/1911 VRB06KT 9999 SKC QNH2987INS 
     TEMPO 1915/1918 8000 -SHRA BKN040 TX28/1914Z TN14/1903Z
       
EDDH 181850Z 04004KT 360V060 9999 FEW050CB 22/15 Q1012 TEMPO 30015G25KT TSRA
TAF EDDH 181700Z 1818/1924 27010KT CAVOK 
     PROB30 
     TEMPO 1818/1820 18015G30KT TSRA SCT040CB 
     BECMG 1819/1821 VRB03KT 
     PROB30 
     TEMPO 1900/1904 2000 BCFG 
     BECMG 1907/1909 15008KT 
     BECMG 1912/1914 21008KT 
     TEMPO 1912/1916 18013KT SCT050CB 
     TEMPO 1916/1921 23015G35KT TSRA BKN030CB 
     PROB30 
     TEMPO 1916/1919 23025G45KT 1500 +TSRAGR
       
EDHI 181850Z AUTO 03007KT 360V060 9999 // FEW120/// SCT250/// 23/15 Q1012
TAF EDHI 181700Z 1818/1821 14003KT CAVOK 
     PROB30 
     TEMPO 1818/1820 18015G30KT TSRA SCT040CB
       
EDDV 181850Z VRB02KT CAVOK 26/13 Q1012 NOSIG
TAF EDDV 181700Z 1818/1918 VRB03KT CAVOK 
     BECMG 1904/1906 14005KT 
     BECMG 1908/1910 20009KT 
     TEMPO 1911/1914 21014KT SCT050CB 
     TEMPO 1914/1918 22015G35KT TSRA BKN030CB 
     PROB30 
     TEMPO 1914/1917 22025G45KT 1500 +TSRAGR
       
EDAH 181420Z 13011KT CAVOK 28/13 Q1016
TAF EDAH 181400Z 1815/1824 13010KT CAVOK
       
EDQM 181850Z 12005KT CAVOK 21/12 Q1015
TAF EDQM 181700Z 1818/1903 VRB03KT CAVOK
       
ETIH 181856Z AUTO 28005KT 9999 CLR 21/16 A2996 RMK AO2 SLP130 T02140159
ETNH 181820Z 05004KT 9999 FEW035 BKN250 21/16 Q1012 RETS BLU+BLU+ TEMPO GRN
TAF ETNH 181620Z 1817/1905 29005KT 9999 NSW FEW050 SCT340 
     PROB30 1817/1820 30015G30KT 4000 TSRA BKN050CB BKN180 
     BECMG 1819/1821 VRB03KT 9999 NSW FEW030 SCT070 BKN180 
     PROB30 1822/1905 VRB02KT 2000 BR FEW030 SCT180 BY ETGL
       
ETSH 181820Z 10003KT 9999 FEW070 SCT350 24/13 Q1013 BLU+
TAF AMD ETSH 181527Z 1814/1823 13008G18KT 9999 NSW FEW070 CANCEL 1600
       
ETSI 181820Z AUTO 07001KT 7000 // ////// 25/12 Q1013 ///
TAF ETSI 181314Z 1814/1823 10005KT 9999 NSW FEW050 SCT300 CANCEL 1420
       
EDSB 181850Z 12003KT CAVOK 27/16 Q1012
TAF EDSB 181700Z 1818/1918 VRB03KT CAVOK 
     BECMG 1908/1910 23010KT 
     PROB30 
     TEMPO 1910/1916 24015G25KT
       
EDVK 181850Z 17003KT CAVOK 24/16 Q1013
TAF EDVK 181700Z 1818/1903 VRB03KT CAVOK
       
EDHK 181550Z VRB03KT 9999 VCSH SCT028 OVC064CB 22/16 Q1013
TAF EDHK 181400Z 1815/1818 16005KT 9999 SCT050TCU 
     TEMPO 1815/1818 TSRA 
     PROB30 
     TEMPO 1815/1818 21015G35KT
       
EDDK 181850Z 20005KT 140V230 CAVOK 27/16 Q1011 NOSIG
TAF EDDK 181700Z 1818/1924 16007KT CAVOK 
     BECMG 1818/1820 10004KT 
     BECMG 1907/1910 17008KT 
     BECMG 1912/1915 24006KT 
     TEMPO 1913/1922 24015G25KT TSRA BKN040CB 
     PROB30 
     TEMPO 1915/1919 24025G45KT 2000 +TSRAGR
       
ETNL 181820Z 12007KT 9999 FEW300 SCT320 BKN360 25/14 Q1013 BLU+
TAF ETNL 181600Z 1817/1905 08007KT 9999 NSW BKN300 BY ETGL
       
EDTL 181750Z 22003KT CAVOK 27/17 Q1012
TAF EDTL 181700Z 1818/1824 21003KT CAVOK
       
ETHL 181820Z 04004KT 9999 FEW050 BKN220 22/12 Q1015 BLU+BLU+
TAF ETHL 181615Z 1817/1902 VRB03KT 9999 NSW FEW050
       
ETSL 181820Z 34003KT 9999 FEW060 SCT270 24/15 Q1015 BLU+
TAF ETSL 181320Z 1814/1823 30006KT 9999 NSW FEW040 BY ETGL
       
EDDP 181850Z 09007KT CAVOK 23/15 Q1013 NOSIG
TAF EDDP 181700Z 1818/1918 10006KT CAVOK 
     BECMG 1900/1902 16006KT 
     BECMG 1907/1909 22007KT 
     PROB30 
     TEMPO 1912/1916 22020G35KT TSRA BKN060CB
       
EDHL 181850Z 31006KT CAVOK 24/16 Q1012
TAF COR EDHL 181750Z 1818/1821 16004KT CAVOK 
     TEMPO 1818/1820 30008KT
       
EDFM 181850Z 19004KT CAVOK 28/13 Q1011
TAF EDFM 181700Z 1818/1821 18004KT CAVOK
       
EDLN 181850Z AUTO 34005KT 9999 // FEW072/// 26/15 Q1011
TAF EDLN 181700Z 1818/1903 34005KT CAVOK 
     BECMG 1818/1820 VRB02KT
       
EDDM 181850Z 09002KT CAVOK 23/14 Q1014 NOSIG
TAF EDDM 181700Z 1818/1924 VRB03KT CAVOK 
     TEMPO 1908/1916 23005KT
       
EDDG 181850Z VRB02KT CAVOK 27/16 Q1011 NOSIG
TAF EDDG 181700Z 1818/1918 VRB03KT CAVOK 
     BECMG 1905/1908 17007KT 
     BECMG 1914/1917 23006KT 
     TEMPO 1915/1918 23015G25KT TSRA BKN040CB 
     PROB30 
     TEMPO 1916/1918 23025G45KT 2000 +TSRAGR
       
ETSN 181820Z 35001KT 9999 FEW060 SCT300 25/12 Q1014 BLU+
TAF ETSN 181605Z 1817/1902 10005KT 9999 NSW FEW050 SCT300 BY ETGL
       
ETHN 181820Z 08003KT 9999 FEW050 BKN220 23/15 Q1014 BLU+BLU+
TAF ETHN 181300Z 1814/1823 14007KT 9999 NSW FEW050 SCT300
       
ETMN 181850Z 02007KT 9999 FEW060 SCT200 BKN300 20/15 Q1013 BLU+FCST CANCEL
TAF AMD ETMN 181816Z 1817/1902 35007KT 9999 NSW FEW050 BKN220 
     PROB30 1900/1902 04005KT 1000 BCFG SCT250 CANCEL 1900
       
ETNN 181820Z 30003KT 9999 FEW060 BKN200 26/15 Q1011 BLU+
TAF ETNN 181320Z 1814/1823 12006KT 9999 NSW SCT040 BKN280 BY ETGL
       
EDDN 181850Z 03002KT CAVOK 24/14 Q1013 NOSIG
TAF EDDN 181700Z 1818/1918 VRB03KT CAVOK 
     BECMG 1907/1909 22007KT
       
EDMO 181850Z AUTO 36003KT 9999 // NCD 23/13 Q1015
TAF EDMO 181700Z 1818/1903 VRB03KT CAVOK
       
EDLP 181850Z 18006KT CAVOK 24/14 Q1012
TAF EDLP 181700Z 1818/1918 15005KT CAVOK 
     BECMG 1908/1911 21008KT 
     TEMPO 1916/1918 21015G25KT TSRA BKN040CB 
     PROB30 
     TEMPO 1916/1918 21025G45KT 2000 +TSRAGR
       
ETAR 181856Z AUTO 15003KT 9999 CLR 24/18 A2989 RMK AO2 SLP115 T02410176
TAF ETAR 181809Z 1818/1924 VRB06KT 9999 FEW050 BKN210 QNH2989INS 
     BECMG 1902/1903 VRB06KT 9999 SCT140 QNH2987INS 
     BECMG 1908/1909 20009KT 9999 FEW110 QNH2985INS 
     TEMPO 1910/1916 20010G20KT 
     BECMG 1915/1916 22009KT 9999 FEW050 QNH2979INS TX29/1912Z TN11/1902Z
       
EDDR 181850Z VRB02KT CAVOK 26/15 Q1013 NOSIG
TAF EDDR 181700Z 1818/1918 16004KT CAVOK 
     BECMG 1907/1909 23010KT 
     PROB30 
     TEMPO 1910/1916 24015G25KT
       
ETNS 181820Z AUTO 10004KT 8000 // ////// 21/17 Q1013 ///
TAF AMD ETNS 181525Z 1814/1823 19005KT 9999 NSW SCT050 BKN280 
     PROB30 1814/1823 23015G30KT 3000 -TSRA SCT030CB
       
EDDB 181850Z 12006KT CAVOK 26/10 Q1013 NOSIG
TAF EDDB 181700Z 1818/1918 12006KT CAVOK 
     BECMG 1911/1914 21008KT 
     PROB30 
     TEMPO 1913/1918 21015G30KT 4000 TSRA BKN040CB
       
EDTY 181750Z 07004KT CAVOK 25/16 Q1014
TAF EDTY 181700Z 1818/1903 VRB03KT CAVOK
       
EDGS 181750Z 18004KT 160V220 CAVOK 24/12 Q1014
TAF EDGS 181700Z 1818/1903 15005KT CAVOK
       
ETAD 181856Z AUTO 26004KT 9999 CLR 24/13 A2991 RMK AO2 SLP104 T02440127
TAF ETAD 181200Z 1812/1918 VRB03KT 9999 SCT050 QNH2999INS 
     BECMG 1817/1818 VRB05KT 9999 FEW035 BKN150 QNH2991INS 
     BECMG 1912/1913 20013G20KT 9999 SCT040 BKN100 QNH2986INS TX26/1813Z
TN14/1904Z
       
EDDS 181850Z 25003KT 210V290 CAVOK 23/17 Q1014 NOSIG
TAF EDDS 181700Z 1818/1918 18005KT CAVOK 
     BECMG 1818/1820 VRB03KT 
     BECMG 1909/1911 24008KT
       
EDDT 181850Z 13006KT CAVOK 26/09 Q1013 NOSIG
TAF EDDT 181700Z 1818/1918 12006KT CAVOK 
     BECMG 1911/1914 21008KT 
     PROB30 
     TEMPO 1913/1918 21015G30KT 4000 TSRA BKN040CB
       
EDXW 181420Z 32008KT CAVOK 21/17 Q1014
TAF EDXW 181400Z 1815/1821 28005KT CAVOK 
     BECMG 1816/1818 34005KT
       
ETOU 181856Z AUTO 15004KT 9999 CLR 26/13 A2988 RMK AO2 SLP114 T02630131
TAF ETOU 181905Z 1819/2001 VRB06KT 9999 FEW180 QNH2988INS 
     BECMG 1901/1902 VRB06KT 9999 BKN170 QNH2987INS 
     BECMG 1906/1907 VRB06KT 9999 SKC QNH2985INS 
     BECMG 1920/1921 25009KT 9999 VCTS BKN100CB QNH2981INS 
     BECMG 1923/1924 25009KT 9999 NSW FEW040 QNH2983INS TX30/1913Z TN14/1902Z
       
ETNT 181820Z AUTO 01008KT 9999 // ////// 20/13 Q1013 ///
ETNW 181820Z 15003KT 9999 FEW050 BKN220 27/14 Q1011 BLU+
TAF ETNW 181620Z 1817/1917 17007KT 9999 NSW FEW060 SCT250 
     BECMG 1817/1819 VRB03KT 9999 NSW SCT080 BKN180 
     TEMPO 1817/1822 VRB15KT 9999 NSW SCT050CB BKN120 
     PROB30 1817/1822 VRB15G30KT 5000 TSRA BKN050CB BKN100 
     BECMG 1907/1910 19008KT 9999 NSW SCT080 BKN180 BY ETGL